Time;durP1;ratioP1;P1;durP2;ratioP2;P2;SDS_P1;SDS_P2;PMS_P1;PMS_P2;Temp;Humidity;BMP_temperature;BMP_pressure;BME280_temperature;BME280_humidity;BME280_pressure;Samples;Min_cycle;Max_cycle;Signal;HPM_P1;HPM_P2
2023/03/09 00:02:00;;;;;;;;;;;;;;;4.84;72.22;94682.03;5154975;27;1052;-53
2023/03/09 00:04:26;;;;;;;;;;;;;;;4.77;74.14;94683.56;5154861;27;1906;-55
2023/03/09 00:06:52;;;;;;;;;;;;;;;4.67;74.32;94680.06;5155014;27;1044;-54
2023/03/09 00:09:18;;;;;;;;;;;;;;;4.35;73.33;94664.38;5155198;27;1048;-54
2023/03/09 00:11:45;;;;;;;;;;;;;;;4.21;74.33;94666.44;5144777;27;1286;-54
2023/03/09 00:14:12;;;;;;;;;;;;;;;4.47;75.35;94690.59;5133931;28;1249;-54
2023/03/09 00:16:39;;;;;;;;;;;;;;;4.52;75.56;94682.25;5134396;28;1046;-54
2023/03/09 00:19:05;;;;;;;;;;;;;;;4.05;75.27;94669.56;5134182;28;1041;-54
2023/03/09 00:21:34;;;;;;;;;;;;;;;4.14;75.92;94670.56;5134070;28;1032;-54
2023/03/09 00:24:11;;;;;;;;;;;;;;;4.34;76.34;94663.53;5134508;27;2015;-54
2023/03/09 00:26:38;;;;;;;;;;;;;;;4.39;75.10;94657.84;5138538;27;984;-54
2023/03/09 00:29:05;;;;;;;;;;;;;;;4.23;75.13;94653.03;5138256;27;1868;-54
2023/03/09 00:31:32;;;;;;;;;;;;;;;4.32;76.17;94656.69;5138331;27;1059;-54
2023/03/09 00:33:58;;;;;;;;;;;;;;;4.41;76.56;94661.19;5138140;27;1331;-54
2023/03/09 00:36:24;;;;;;;;;;;;;;;4.06;75.28;94650.06;5138294;27;1020;-54
2023/03/09 00:38:54;;;;;;;;;;;;;;;3.78;75.70;94633.13;5138146;27;969;-54
2023/03/09 00:41:20;;;;;;;;;;;;;;;3.82;76.21;94634.53;5119610;27;965;-54
2023/03/09 00:43:47;;;;;;;;;;;;;;;4.09;76.17;94638.38;5138180;27;1905;-54
2023/03/09 00:46:13;;;;;;;;;;;;;;;4.18;75.19;94636.75;5138020;27;1049;-54
2023/03/09 00:48:40;;;;;;;;;;;;;;;4.16;74.62;94634.22;5137964;27;1056;-54
2023/03/09 00:51:06;;;;;;;;;;;;;;;4.16;74.91;94639.53;5137887;27;1032;-54
2023/03/09 00:53:33;;;;;;;;;;;;;;;3.80;75.14;94633.00;5137708;27;1076;-54
2023/03/09 00:56:03;;;;;;;;;;;;;;;3.62;75.93;94627.47;5137967;27;1059;-54
2023/03/09 00:58:29;;;;;;;;;;;;;;;3.72;75.92;94629.19;5137792;27;1027;-54
2023/03/09 01:00:55;;;;;;;;;;;;;;;3.87;75.61;94624.41;5137832;27;1055;-54
2023/03/09 01:03:21;;;;;;;;;;;;;;;4.01;75.74;94625.00;5137746;27;1991;-53
2023/03/09 01:05:47;;;;;;;;;;;;;;;4.06;76.24;94620.97;5137799;27;1073;-54
2023/03/09 01:08:13;;;;;;;;;;;;;;;4.06;74.65;94623.63;5137387;27;1072;-54
2023/03/09 01:10:40;;;;;;;;;;;;;;;4.04;75.64;94632.66;5138052;27;1342;-54
2023/03/09 01:13:06;;;;;;;;;;;;;;;4.10;76.63;94625.03;5157972;27;1090;-54
2023/03/09 01:15:32;;;;;;;;;;;;;;;3.82;75.90;94607.25;5158327;27;1035;-54
2023/03/09 01:17:58;;;;;;;;;;;;;;;3.75;76.36;94616.69;5158317;27;1048;-54
2023/03/09 01:20:24;;;;;;;;;;;;;;;3.81;77.46;94622.25;5157866;27;1036;-54
2023/03/09 01:22:50;;;;;;;;;;;;;;;3.69;76.65;94613.59;5158154;27;1905;-54
2023/03/09 01:25:16;;;;;;;;;;;;;;;3.70;76.99;94604.69;5158091;27;984;-53
2023/03/09 01:27:42;;;;;;;;;;;;;;;3.46;77.40;94598.88;5139474;27;1028;-54
2023/03/09 01:30:09;;;;;;;;;;;;;;;3.60;77.00;94603.78;5157648;27;1122;-54
2023/03/09 01:32:35;;;;;;;;;;;;;;;3.83;77.37;94595.69;5158011;27;951;-53
2023/03/09 01:35:01;;;;;;;;;;;;;;;3.61;76.61;94589.63;5157313;27;1019;-54
2023/03/09 01:37:27;;;;;;;;;;;;;;;3.68;78.01;94596.06;5157568;27;1212;-54
2023/03/09 01:39:53;;;;;;;;;;;;;;;3.79;78.64;94592.47;5157498;27;1003;-54
2023/03/09 01:42:19;;;;;;;;;;;;;;;3.42;77.77;94581.63;5157722;27;2477;-54
2023/03/09 01:45:05;;;;;;;;;;;;;;;3.37;78.88;94575.88;5157724;27;1058;-54
2023/03/09 01:47:31;;;;;;;;;;;;;;;3.73;77.71;94590.38;5157526;27;1011;-54
2023/03/09 01:49:57;;;;;;;;;;;;;;;3.82;78.44;94592.22;5157481;27;980;-54
2023/03/09 01:52:29;;;;;;;;;;;;;;;3.74;78.24;94594.69;5157206;27;1041;-54
2023/03/09 01:54:58;;;;;;;;;;;;;;;3.75;78.54;94592.88;5157557;27;980;-54
2023/03/09 01:57:27;;;;;;;;;;;;;;;3.78;78.99;94589.97;5157349;27;1031;-54
2023/03/09 01:59:56;;;;;;;;;;;;;;;3.64;78.52;94594.66;5157308;27;976;-54
2023/03/09 02:02:24;;;;;;;;;;;;;;;3.77;78.32;94593.59;5157004;27;1909;-54
2023/03/09 02:04:52;;;;;;;;;;;;;;;3.94;77.77;94600.88;5157052;27;964;-54
2023/03/09 02:07:20;;;;;;;;;;;;;;;4.10;77.29;94603.03;5157236;27;985;-54
2023/03/09 02:09:52;;;;;;;;;;;;;;;4.07;77.98;94590.88;5157318;27;1141;-54
2023/03/09 02:12:19;;;;;;;;;;;;;;;3.59;77.53;94585.44;5141767;27;1983;-54
2023/03/09 02:14:46;;;;;;;;;;;;;;;3.59;78.22;94581.00;5136263;27;1100;-54
2023/03/09 02:17:13;;;;;;;;;;;;;;;3.61;78.36;94581.69;5136384;27;965;-54
2023/03/09 02:19:39;;;;;;;;;;;;;;;3.36;78.57;94592.69;5136355;27;1056;-54
2023/03/09 02:22:05;;;;;;;;;;;;;;;3.45;78.39;94602.47;5136654;27;981;-54
2023/03/09 02:24:49;;;;;;;;;;;;;;;3.43;78.83;94601.78;5135861;27;1036;-54
2023/03/09 02:27:17;;;;;;;;;;;;;;;3.23;78.83;94595.56;5135894;27;1049;-54
2023/03/09 02:29:44;;;;;;;;;;;;;;;3.31;79.69;94596.56;5136169;27;969;-54
2023/03/09 02:32:10;;;;;;;;;;;;;;;3.22;79.63;94596.50;5117590;27;977;-54
2023/03/09 02:34:36;;;;;;;;;;;;;;;3.30;79.29;94607.25;5135958;27;1926;-54
2023/03/09 02:37:02;;;;;;;;;;;;;;;3.24;77.83;94616.53;5135713;27;1116;-54
2023/03/09 02:39:35;;;;;;;;;;;;;;;2.87;78.21;94614.34;5135923;27;1073;-54
2023/03/09 02:42:02;;;;;;;;;;;;;;;2.80;79.19;94617.63;5135686;27;1058;-54
2023/03/09 02:44:28;;;;;;;;;;;;;;;2.89;79.69;94630.91;5135791;27;973;-54
2023/03/09 02:46:54;;;;;;;;;;;;;;;2.95;79.62;94624.28;5134873;27;989;-54
2023/03/09 02:49:20;;;;;;;;;;;;;;;2.85;79.60;94613.66;5135797;27;965;-54
2023/03/09 02:51:46;;;;;;;;;;;;;;;2.97;79.25;94601.22;5135621;27;1036;-54
2023/03/09 02:54:12;;;;;;;;;;;;;;;3.09;79.01;94604.63;5135209;27;1914;-54
2023/03/09 02:56:38;;;;;;;;;;;;;;;3.26;78.95;94606.72;5135644;27;968;-54
2023/03/09 02:59:04;;;;;;;;;;;;;;;3.09;78.07;94607.28;5135316;27;1147;-54
2023/03/09 03:01:30;;;;;;;;;;;;;;;2.41;81.18;94594.41;5135457;27;1064;-54
2023/03/09 03:03:56;;;;;;;;;;;;;;;2.77;80.49;94621.38;5135525;27;1005;-54
2023/03/09 03:06:22;;;;;;;;;;;;;;;3.05;80.25;94608.50;5135418;27;1004;-54
2023/03/09 03:08:48;;;;;;;;;;;;;;;3.12;80.13;94605.22;5135727;27;1048;-54
2023/03/09 03:11:14;;;;;;;;;;;;;;;3.19;79.97;94613.47;5140989;27;1283;-54
2023/03/09 03:13:40;;;;;;;;;;;;;;;3.09;80.42;94599.34;5155561;27;2049;-54
2023/03/09 03:16:06;;;;;;;;;;;;;;;3.19;80.14;94599.41;5155737;27;1083;-54
2023/03/09 03:18:33;;;;;;;;;;;;;;;3.36;79.91;94595.31;5155885;27;961;-54
2023/03/09 03:20:59;;;;;;;;;;;;;;;3.32;80.09;94595.59;5137525;27;971;-54
2023/03/09 03:23:25;;;;;;;;;;;;;;;3.36;79.61;94605.91;5155668;27;1046;-54
2023/03/09 03:25:51;;;;;;;;;;;;;;;3.03;80.07;94611.25;5155869;27;973;-54
2023/03/09 03:28:17;;;;;;;;;;;;;;;2.68;80.42;94617.69;5155480;27;925;-54
2023/03/09 03:30:48;;;;;;;;;;;;;;;2.86;80.86;94619.75;5155434;27;1020;-54
2023/03/09 03:33:14;;;;;;;;;;;;;;;2.86;79.52;94615.31;5155325;27;1984;-54
2023/03/09 03:35:40;;;;;;;;;;;;;;;2.57;80.69;94630.09;5155722;27;980;-54
2023/03/09 03:38:06;;;;;;;;;;;;;;;2.73;81.68;94625.19;5155631;27;1028;-54
2023/03/09 03:40:32;;;;;;;;;;;;;;;2.63;80.92;94621.66;5155368;27;944;-54
2023/03/09 03:42:58;;;;;;;;;;;;;;;2.62;81.69;94636.66;5155255;27;1035;-54
2023/03/09 03:45:25;;;;;;;;;;;;;;;2.68;81.63;94652.00;5155179;27;1040;-54
2023/03/09 03:47:51;;;;;;;;;;;;;;;2.85;81.32;94655.06;5155200;27;1044;-54
2023/03/09 03:50:17;;;;;;;;;;;;;;;3.02;81.21;94661.59;5155412;27;1023;-54
2023/03/09 03:52:43;;;;;;;;;;;;;;;2.93;80.06;94632.31;5155398;27;1988;-54
2023/03/09 03:55:09;;;;;;;;;;;;;;;2.59;80.22;94638.72;5155426;27;1051;-54
2023/03/09 03:57:35;;;;;;;;;;;;;;;2.55;80.89;94653.94;5154991;27;980;-54
2023/03/09 04:00:04;;;;;;;;;;;;;;;2.71;81.31;94642.97;5155096;27;1035;-54
2023/03/09 04:02:30;;;;;;;;;;;;;;;2.51;80.85;94642.81;5154911;27;1119;-53
2023/03/09 04:04:56;;;;;;;;;;;;;;;2.60;81.64;94648.28;5154978;27;1099;-54
2023/03/09 04:07:23;;;;;;;;;;;;;;;2.73;81.42;94636.63;5155003;27;984;-54
2023/03/09 04:09:49;;;;;;;;;;;;;;;2.54;81.66;94637.28;5154975;27;988;-54
2023/03/09 04:12:15;;;;;;;;;;;;;;;2.62;82.22;94646.38;5140399;27;1315;-55
2023/03/09 04:14:41;;;;;;;;;;;;;;;2.81;82.34;94633.34;5134322;28;1910;-53
2023/03/09 04:17:08;;;;;;;;;;;;;;;2.70;81.54;94636.03;5115928;28;1073;-54
2023/03/09 04:19:34;;;;;;;;;;;;;;;2.69;81.56;94640.47;5134328;28;1016;-54
2023/03/09 04:22:00;;;;;;;;;;;;;;;2.69;82.06;94629.06;5134229;28;1039;-54
2023/03/09 04:24:26;;;;;;;;;;;;;;;2.74;81.36;94638.28;5133971;28;1024;-53
2023/03/09 04:26:52;;;;;;;;;;;;;;;2.83;81.39;94634.06;5134303;28;1015;-54
2023/03/09 04:29:18;;;;;;;;;;;;;;;2.86;81.76;94633.78;5134159;28;1029;-53
2023/03/09 04:31:44;;;;;;;;;;;;;;;2.80;82.00;94630.84;5134424;28;988;-54
2023/03/09 04:34:11;;;;;;;;;;;;;;;2.79;81.62;94630.00;5134089;28;1982;-54
2023/03/09 04:36:37;;;;;;;;;;;;;;;2.65;81.38;94622.38;5134254;28;976;-54
2023/03/09 04:39:04;;;;;;;;;;;;;;;2.59;81.51;94614.97;5133919;28;1045;-54
2023/03/09 04:41:31;;;;;;;;;;;;;;;2.40;81.10;94603.25;5133786;28;1041;-54
2023/03/09 04:43:56;;;;;;;;;;;;;;;2.12;82.43;94605.47;5134174;28;981;-54
2023/03/09 04:46:23;;;;;;;;;;;;;;;2.41;82.97;94609.38;5134020;28;1047;-54
2023/03/09 04:48:49;;;;;;;;;;;;;;;2.64;82.59;94610.97;5134004;28;1008;-54
2023/03/09 04:51:15;;;;;;;;;;;;;;;2.70;81.90;94625.47;5133974;28;1036;-54
2023/03/09 04:53:41;;;;;;;;;;;;;;;2.61;82.30;94645.53;5134043;28;1913;-54
2023/03/09 04:56:07;;;;;;;;;;;;;;;2.72;82.75;94640.22;5133795;28;989;-54
2023/03/09 04:58:33;;;;;;;;;;;;;;;2.52;83.37;94639.22;5133664;28;1064;-54
2023/03/09 05:01:01;;;;;;;;;;;;;;;2.82;82.46;94645.56;5133700;28;1040;-53
2023/03/09 05:03:27;;;;;;;;;;;;;;;3.02;81.92;94645.75;5133588;28;1100;-54
2023/03/09 05:05:53;;;;;;;;;;;;;;;3.17;80.95;94649.75;5133687;28;1096;-54
2023/03/09 05:08:19;;;;;;;;;;;;;;;3.27;81.12;94648.00;5133610;28;1249;-54
2023/03/09 05:10:46;;;;;;;;;;;;;;;2.95;80.74;94644.56;5136757;27;1271;-54
2023/03/09 05:13:12;;;;;;;;;;;;;;;2.83;81.57;94639.34;5158005;27;1917;-54
2023/03/09 05:15:39;;;;;;;;;;;;;;;2.87;80.88;94630.19;5158339;27;1040;-54
2023/03/09 05:18:05;;;;;;;;;;;;;;;2.72;81.32;94642.84;5158037;27;1182;-54
2023/03/09 05:20:32;;;;;;;;;;;;;;;3.05;82.13;94630.44;5158172;27;1004;-54
2023/03/09 05:22:59;;;;;;;;;;;;;;;3.35;81.12;94606.88;5157948;27;1033;-54
2023/03/09 05:25:25;;;;;;;;;;;;;;;3.26;80.08;94619.91;5157748;27;976;-54
2023/03/09 05:27:51;;;;;;;;;;;;;;;3.40;81.17;94633.75;5139746;27;979;-54
2023/03/09 05:30:19;;;;;;;;;;;;;;;3.65;80.48;94622.75;5157722;27;1974;-54
2023/03/09 05:32:45;;;;;;;;;;;;;;;3.83;80.12;94645.94;5157789;27;1905;-54
2023/03/09 05:35:11;;;;;;;;;;;;;;;3.91;80.21;94649.59;5157909;27;1024;-54
2023/03/09 05:37:37;;;;;;;;;;;;;;;3.92;78.79;94650.44;5157667;27;1024;-54
2023/03/09 05:40:04;;;;;;;;;;;;;;;3.76;79.22;94656.22;5157583;27;1044;-54
2023/03/09 05:42:31;;;;;;;;;;;;;;;3.71;79.30;94646.00;5157853;27;1012;-54
2023/03/09 05:44:58;;;;;;;;;;;;;;;4.16;78.45;94657.22;5157497;27;1128;-54
2023/03/09 05:47:25;;;;;;;;;;;;;;;4.17;78.15;94646.47;5157287;27;1053;-54
2023/03/09 05:49:51;;;;;;;;;;;;;;;4.38;77.41;94638.47;5157730;27;1019;-55
2023/03/09 05:52:17;;;;;;;;;;;;;;;4.76;77.08;94647.47;5157297;27;1091;-54
2023/03/09 05:54:43;;;;;;;;;;;;;;;4.97;75.39;94652.63;5157188;27;1969;-55
2023/03/09 05:57:13;;;;;;;;;;;;;;;5.11;74.76;94666.44;5157509;27;1023;-55
2023/03/09 05:59:39;;;;;;;;;;;;;;;5.79;72.30;94661.88;5157205;27;1228;-55
2023/03/09 06:02:05;;;;;;;;;;;;;;;7.02;67.10;94667.88;5157285;27;972;-55
2023/03/09 06:04:31;;;;;;;;;;;;;;;8.27;62.83;94664.13;5138713;27;988;-55
2023/03/09 06:06:57;;;;;;;;;;;;;;;9.73;57.14;94653.13;5157411;27;941;-56
2023/03/09 06:09:23;;;;;;;;;;;;;;;11.50;52.80;94682.22;5157244;27;968;-55
2023/03/09 06:11:49;;;;;;;;;;;;;;;13.28;47.73;94707.59;5146202;27;1334;-56
2023/03/09 06:14:16;;;;;;;;;;;;;;;14.94;43.90;94708.22;5135917;27;1980;-56
2023/03/09 06:16:42;;;;;;;;;;;;;;;14.84;42.48;94689.75;5136475;27;1034;-56
2023/03/09 06:19:08;;;;;;;;;;;;;;;15.25;42.06;94698.84;5136191;27;961;-56
2023/03/09 06:21:35;;;;;;;;;;;;;;;16.50;39.64;94709.25;5136198;27;1104;-56
2023/03/09 06:24:01;;;;;;;;;;;;;;;16.39;40.05;94705.34;5136214;27;1008;-56
2023/03/09 06:26:27;;;;;;;;;;;;;;;16.85;39.74;94699.09;5136142;27;1101;-56
2023/03/09 06:28:53;;;;;;;;;;;;;;;15.60;41.23;94685.28;5136269;27;970;-56
2023/03/09 06:31:19;;;;;;;;;;;;;;;14.84;42.62;94681.69;5135693;27;1057;-56
2023/03/09 06:33:45;;;;;;;;;;;;;;;14.56;43.83;94683.56;5135803;27;1990;-56
2023/03/09 06:36:13;;;;;;;;;;;;;;;14.05;44.83;94684.63;5135748;27;965;-56
2023/03/09 06:38:39;;;;;;;;;;;;;;;13.05;47.44;94673.66;5135635;27;1052;-56
2023/03/09 06:41:05;;;;;;;;;;;;;;;12.75;49.41;94664.81;5135965;27;981;-56
2023/03/09 06:43:31;;;;;;;;;;;;;;;11.44;53.88;94656.16;5135723;27;1056;-56
2023/03/09 06:45:57;;;;;;;;;;;;;;;11.06;55.54;94644.53;5135940;27;957;-56
2023/03/09 06:48:23;;;;;;;;;;;;;;;11.71;54.24;94648.59;5135422;27;1049;-56
2023/03/09 06:50:49;;;;;;;;;;;;;;;11.90;53.65;94653.47;5135578;27;1036;-56
2023/03/09 06:53:16;;;;;;;;;;;;;;;11.59;54.25;94652.69;5135491;27;1909;-56
2023/03/09 06:55:42;;;;;;;;;;;;;;;11.92;53.93;94655.97;5135352;27;1100;-56
2023/03/09 06:58:08;;;;;;;;;;;;;;;11.30;54.76;94656.94;5135342;27;1049;-56
2023/03/09 07:00:40;;;;;;;;;;;;;;;10.95;57.17;94667.19;5135228;27;1035;-55
2023/03/09 07:03:09;;;;;;;;;;;;;;;10.93;56.93;94663.84;5135697;27;1123;-55
2023/03/09 07:05:35;;;;;;;;;;;;;;;11.02;57.61;94652.09;5135478;27;1000;-56
2023/03/09 07:08:01;;;;;;;;;;;;;;;11.27;56.41;94654.63;5135083;27;972;-55
2023/03/09 07:10:27;;;;;;;;;;;;;;;11.86;55.03;94649.47;5135263;27;980;-54
2023/03/09 07:12:53;;;;;;;;;;;;;;;11.47;56.00;94628.19;5154812;27;1992;-56
2023/03/09 07:15:19;;;;;;;;;;;;;;;11.76;54.78;94640.88;5155634;27;1044;-56
2023/03/09 07:17:45;;;;;;;;;;;;;;;12.72;52.62;94657.13;5155812;27;999;-54
2023/03/09 07:20:11;;;;;;;;;;;;;;;12.61;53.49;94646.88;5155664;27;968;-55
2023/03/09 07:22:38;;;;;;;;;;;;;;;12.58;52.18;94642.72;5155535;27;1048;-56
2023/03/09 07:25:04;;;;;;;;;;;;;;;12.61;53.69;94647.69;5155742;27;961;-56
2023/03/09 07:27:30;;;;;;;;;;;;;;;12.44;53.54;94646.22;5137049;27;1033;-56
2023/03/09 07:29:57;;;;;;;;;;;;;;;11.59;54.14;94636.63;5155471;27;1087;-56
2023/03/09 07:32:24;;;;;;;;;;;;;;;12.01;54.65;94641.50;5155574;27;964;-56
2023/03/09 07:34:50;;;;;;;;;;;;;;;12.49;54.83;94649.19;5154905;27;1034;-56
2023/03/09 07:37:16;;;;;;;;;;;;;;;12.26;54.25;94644.75;5155443;27;1078;-56
2023/03/09 07:39:42;;;;;;;;;;;;;;;11.77;55.78;94634.47;5155559;27;1067;-55
2023/03/09 07:42:08;;;;;;;;;;;;;;;11.33;55.76;94627.16;5155530;27;1013;-55
2023/03/09 07:44:34;;;;;;;;;;;;;;;11.08;57.85;94629.16;5155630;27;1019;-55
2023/03/09 07:47:00;;;;;;;;;;;;;;;11.67;56.07;94636.59;5155296;27;1039;-56
2023/03/09 07:49:26;;;;;;;;;;;;;;;12.76;53.70;94638.81;5155053;27;1276;-55
2023/03/09 07:51:53;;;;;;;;;;;;;;;13.27;53.10;94641.47;5155028;27;968;-56
2023/03/09 07:54:19;;;;;;;;;;;;;;;13.46;50.97;94651.63;5155237;27;1905;-55
2023/03/09 07:56:50;;;;;;;;;;;;;;;13.05;51.70;94636.09;5155394;27;1060;-55
2023/03/09 07:59:17;;;;;;;;;;;;;;;13.07;52.54;94619.78;5155289;27;1036;-56
2023/03/09 08:01:43;;;;;;;;;;;;;;;13.24;52.54;94618.53;5154903;27;1023;-57
2023/03/09 08:04:09;;;;;;;;;;;;;;;13.53;51.43;94622.16;5155005;27;1048;-55
2023/03/09 08:06:39;;;;;;;;;;;;;;;13.70;50.16;94619.19;5154998;27;1096;-55
2023/03/09 08:09:06;;;;;;;;;;;;;;;14.06;50.52;94616.41;5155247;27;1024;-55
2023/03/09 08:11:33;;;;;;;;;;;;;;;14.26;49.96;94624.59;5146589;27;1588;-54
2023/03/09 08:13:59;;;;;;;;;;;;;;;14.43;49.12;94630.50;5134121;28;1977;-55
2023/03/09 08:16:25;;;;;;;;;;;;;;;14.61;50.85;94619.28;5134249;28;945;-54
2023/03/09 08:18:52;;;;;;;;;;;;;;;14.57;48.63;94626.91;5134310;28;1020;-55
2023/03/09 08:21:18;;;;;;;;;;;;;;;14.79;47.82;94626.78;5134083;28;1736;-55
2023/03/09 08:23:44;;;;;;;;;;;;;;;14.99;46.90;94632.28;5134128;28;1862;-53
2023/03/09 08:26:14;;;;;;;;;;;;;;;14.66;47.07;94616.78;5134284;28;1059;-56
2023/03/09 08:28:40;;;;;;;;;;;;;;;15.17;46.13;94610.16;5134609;28;1070;-55
2023/03/09 08:31:08;;;;;;;;;;;;;;;15.11;47.14;94613.69;5134357;28;1044;-55
2023/03/09 08:33:34;;;;;;;;;;;;;;;14.83;48.09;94612.75;5134194;28;1989;-56
2023/03/09 08:36:08;;;;;;;;;;;;;;;14.51;46.87;94606.13;5134312;28;1032;-54
2023/03/09 08:38:34;;;;;;;;;;;;;;;14.43;47.04;94600.91;5134239;28;1252;-54
2023/03/09 08:41:00;;;;;;;;;;;;;;;14.38;47.61;94595.28;5133795;28;1096;-55
2023/03/09 08:43:28;;;;;;;;;;;;;;;14.34;49.07;94585.97;5114364;28;953;-55
2023/03/09 08:45:54;;;;;;;;;;;;;;;14.71;48.45;94595.50;5135470;27;1052;-55
2023/03/09 08:48:20;;;;;;;;;;;;;;;15.29;48.48;94592.41;5137995;27;1028;-55
2023/03/09 08:50:46;;;;;;;;;;;;;;;15.64;47.12;94589.53;5137902;27;1037;-55
2023/03/09 08:53:12;;;;;;;;;;;;;;;15.81;47.98;94580.03;5137710;27;1988;-55
2023/03/09 08:55:38;;;;;;;;;;;;;;;16.04;47.65;94575.28;5137823;27;1048;-55
2023/03/09 08:58:04;;;;;;;;;;;;;;;16.17;46.57;94588.72;5137867;27;1067;-55
2023/03/09 09:00:30;;;;;;;;;;;;;;;15.70;45.60;94591.41;5137884;27;1039;-55
2023/03/09 09:02:56;;;;;;;;;;;;;;;15.74;47.38;94587.28;5137600;27;1037;-55
2023/03/09 09:05:22;;;;;;;;;;;;;;;16.18;45.91;94588.53;5137501;27;1049;-55
2023/03/09 09:07:48;;;;;;;;;;;;;;;16.46;45.72;94586.59;5137756;27;1020;-56
2023/03/09 09:10:14;;;;;;;;;;;;;;;16.94;44.99;94580.84;5137710;27;1072;-54
2023/03/09 09:12:40;;;;;;;;;;;;;;;17.47;43.67;94572.50;5155230;27;1983;-55
2023/03/09 09:15:13;;;;;;;;;;;;;;;17.87;41.52;94583.03;5158139;27;1036;-54
2023/03/09 09:17:40;;;;;;;;;;;;;;;17.76;42.03;94576.44;5158008;27;1031;-55
2023/03/09 09:20:07;;;;;;;;;;;;;;;17.81;43.02;94566.81;5158279;27;969;-54
2023/03/09 09:22:33;;;;;;;;;;;;;;;18.49;42.70;94572.25;5158018;27;925;-54
2023/03/09 09:24:59;;;;;;;;;;;;;;;18.28;41.43;94572.69;5157929;27;1048;-55
2023/03/09 09:27:25;;;;;;;;;;;;;;;18.34;40.61;94566.38;5158141;27;1048;-57
2023/03/09 09:29:56;;;;;;;;;;;;;;;18.72;42.11;94562.63;5157843;27;1115;-57
2023/03/09 09:32:22;;;;;;;;;;;;;;;19.05;40.06;94556.03;5157935;27;976;-57
2023/03/09 09:34:48;;;;;;;;;;;;;;;19.17;40.73;94551.50;5157692;27;1933;-57
2023/03/09 09:37:15;;;;;;;;;;;;;;;18.87;39.76;94554.16;5157539;27;1091;-57
2023/03/09 09:39:41;;;;;;;;;;;;;;;19.18;39.20;94547.75;5157608;27;1210;-57
2023/03/09 09:42:12;;;;;;;;;;;;;;;19.59;40.04;94543.38;5157986;27;956;-57
2023/03/09 09:44:40;;;;;;;;;;;;;;;19.29;39.81;94541.53;5157548;27;983;-56
2023/03/09 09:47:10;;;;;;;;;;;;;;;19.46;39.73;94539.00;5157809;27;1059;-56
2023/03/09 09:49:42;;;;;;;;;;;;;;;19.66;39.62;94543.28;5157741;27;985;-57
2023/03/09 09:52:18;;;;;;;;;;;;;;;19.93;39.86;94546.44;5157525;27;1020;-57
2023/03/09 09:55:03;;;;;;;;;;;;;;;19.88;38.80;94532.72;5139048;27;1901;-57
2023/03/09 09:57:35;;;;;;;;;;;;;;;19.91;37.47;94529.56;5156825;27;1033;-57
2023/03/09 10:00:05;;;;;;;;;;;;;;;19.86;40.00;94513.16;5157465;27;1128;-57
2023/03/09 10:02:37;;;;;;;;;;;;;;;19.87;38.69;94520.25;5157253;27;969;-56
2023/03/09 10:05:05;;;;;;;;;;;;;;;19.89;39.43;94507.25;5157165;27;1096;-57
2023/03/09 10:07:32;;;;;;;;;;;;;;;19.90;39.01;94498.09;5157322;27;1043;-57
2023/03/09 10:10:01;;;;;;;;;;;;;;;19.69;39.32;94491.28;5157010;27;1095;-57
2023/03/09 10:12:27;;;;;;;;;;;;;;;19.72;40.42;94484.59;5140707;27;1373;-57
2023/03/09 10:15:00;;;;;;;;;;;;;;;20.23;39.63;94480.38;5136194;27;1905;-57
2023/03/09 10:17:46;;;;;;;;;;;;;;;20.02;39.37;94481.81;5136278;27;1091;-57
2023/03/09 10:20:15;;;;;;;;;;;;;;;19.93;39.07;94469.66;5135908;27;1088;-57
2023/03/09 10:22:43;;;;;;;;;;;;;;;20.34;39.34;94478.72;5118183;27;1044;-57
2023/03/09 10:25:10;;;;;;;;;;;;;;;20.72;38.06;94461.06;5136271;27;1037;-57
2023/03/09 10:27:43;;;;;;;;;;;;;;;20.55;38.67;94456.34;5136301;27;1146;-57
2023/03/09 10:30:09;;;;;;;;;;;;;;;20.81;38.40;94465.88;5136233;27;1012;-57
2023/03/09 10:32:35;;;;;;;;;;;;;;;20.52;39.10;94453.28;5135739;27;1988;-57
2023/03/09 10:35:16;;;;;;;;;;;;;;;19.55;39.55;94441.88;5135759;27;1041;-57
2023/03/09 10:37:42;;;;;;;;;;;;;;;19.19;39.48;94434.75;5135941;27;1064;-57
2023/03/09 10:40:16;;;;;;;;;;;;;;;18.73;40.25;94431.63;5135861;27;972;-57
2023/03/09 10:42:42;;;;;;;;;;;;;;;18.50;41.92;94430.47;5135932;27;1040;-57
2023/03/09 10:45:27;;;;;;;;;;;;;;;18.22;41.67;94411.25;5135665;27;1056;-57
2023/03/09 10:47:57;;;;;;;;;;;;;;;18.03;41.26;94416.66;5135563;27;1024;-57
2023/03/09 10:50:25;;;;;;;;;;;;;;;18.25;42.22;94413.50;5135764;27;969;-57
2023/03/09 10:52:52;;;;;;;;;;;;;;;18.26;41.91;94404.34;5135502;27;1918;-57
2023/03/09 10:55:36;;;;;;;;;;;;;;;18.11;41.20;94405.53;5135348;27;1088;-57
2023/03/09 10:58:14;;;;;;;;;;;;;;;17.80;41.60;94398.38;5135325;27;938;-57
2023/03/09 11:00:49;;;;;;;;;;;;;;;17.77;41.86;94401.50;5135511;27;1052;-57
2023/03/09 11:03:19;;;;;;;;;;;;;;;17.72;41.97;94399.50;5135376;27;1135;-57
2023/03/09 11:05:45;;;;;;;;;;;;;;;17.82;40.70;94401.69;5135235;27;1021;-57
2023/03/09 11:08:21;;;;;;;;;;;;;;;17.98;41.35;94384.06;5134385;27;1099;-57
2023/03/09 11:10:59;;;;;;;;;;;;;;;18.01;40.77;94385.50;5118864;27;1228;-57
2023/03/09 11:13:25;;;;;;;;;;;;;;;18.15;40.79;94384.28;5155689;27;1913;-57
2023/03/09 11:16:03;;;;;;;;;;;;;;;18.33;40.66;94378.03;5155825;27;1032;-57
2023/03/09 11:18:29;;;;;;;;;;;;;;;18.29;40.71;94372.25;5155707;27;1084;-57
2023/03/09 11:20:56;;;;;;;;;;;;;;;18.81;39.71;94371.75;5156135;27;1024;-57
2023/03/09 11:23:30;;;;;;;;;;;;;;;19.34;39.40;94372.78;5155900;27;1059;-57
2023/03/09 11:26:15;;;;;;;;;;;;;;;19.45;38.61;94371.16;5155917;27;1128;-57
2023/03/09 11:28:57;;;;;;;;;;;;;;;19.35;38.31;94369.03;5155636;27;1012;-57
2023/03/09 11:31:24;;;;;;;;;;;;;;;19.09;39.10;94360.28;5155389;27;1059;-57
2023/03/09 11:33:52;;;;;;;;;;;;;;;19.13;39.93;94352.50;5155376;27;1910;-56
2023/03/09 11:36:21;;;;;;;;;;;;;;;19.17;38.69;94353.69;5155376;27;1102;-55
2023/03/09 11:38:47;;;;;;;;;;;;;;;19.19;39.73;94345.34;5155387;27;1084;-56
2023/03/09 11:41:24;;;;;;;;;;;;;;;19.14;39.77;94345.19;5155367;27;1043;-56
2023/03/09 11:43:53;;;;;;;;;;;;;;;19.15;40.05;94339.56;5155362;27;1051;-56
2023/03/09 11:46:19;;;;;;;;;;;;;;;19.07;39.22;94343.44;5155110;27;1084;-56
2023/03/09 11:49:03;;;;;;;;;;;;;;;18.63;39.61;94334.72;5155210;27;1041;-57
2023/03/09 11:51:34;;;;;;;;;;;;;;;18.73;39.92;94324.13;5155160;27;1088;-56
2023/03/09 11:54:06;;;;;;;;;;;;;;;18.75;39.89;94323.91;5155080;27;1984;-57
2023/03/09 11:56:38;;;;;;;;;;;;;;;18.99;40.09;94313.13;5155150;27;1880;-55
2023/03/09 11:59:14;;;;;;;;;;;;;;;19.43;39.60;94302.81;5155404;27;965;-59
2023/03/09 12:01:43;;;;;;;;;;;;;;;19.83;39.39;94302.06;5155441;27;969;-57
2023/03/09 12:04:10;;;;;;;;;;;;;;;19.84;38.00;94301.00;5155161;27;1041;-58
2023/03/09 12:06:41;;;;;;;;;;;;;;;20.04;38.69;94296.00;5155138;27;1111;-60
2023/03/09 12:09:11;;;;;;;;;;;;;;;20.16;37.84;94284.28;5155067;27;961;-54
2023/03/09 12:11:47;;;;;;;;;;;;;;;19.84;37.75;94292.84;5146013;27;1629;-56
2023/03/09 12:14:19;;;;;;;;;;;;;;;19.70;37.81;94293.09;5134030;28;1988;-56
2023/03/09 12:16:47;;;;;;;;;;;;;;;19.72;37.49;94290.19;5134334;28;1020;-56
2023/03/09 12:19:19;;;;;;;;;;;;;;;19.75;37.96;94284.28;5134848;27;1100;-57
2023/03/09 12:21:57;;;;;;;;;;;;;;;19.84;37.92;94285.56;5138631;27;1037;-56
2023/03/09 12:24:28;;;;;;;;;;;;;;;19.81;38.10;94277.09;5138613;27;1052;-56
2023/03/09 12:27:00;;;;;;;;;;;;;;;19.82;37.78;94274.09;5138783;27;1226;-56
2023/03/09 12:29:30;;;;;;;;;;;;;;;19.65;37.70;94273.19;5138282;27;1045;-56
2023/03/09 12:32:15;;;;;;;;;;;;;;;19.56;38.06;94261.91;5138386;27;1123;-56
2023/03/09 12:34:42;;;;;;;;;;;;;;;19.61;38.74;94261.97;5138536;27;1980;-56
2023/03/09 12:37:27;;;;;;;;;;;;;;;19.94;37.79;94265.97;5138212;27;1257;-56
2023/03/09 12:40:20;;;;;;;;;;;;;;;20.12;38.14;94262.22;5138505;27;1136;-56
2023/03/09 12:42:48;;;;;;;;;;;;;;;20.09;37.58;94251.88;5099985;27;1272;-56
2023/03/09 12:45:14;;;;;;;;;;;;;;;20.00;37.74;94250.59;5138225;27;1020;-55
2023/03/09 12:47:41;;;;;;;;;;;;;;;19.92;37.40;94238.25;5141111;27;992;-56
2023/03/09 12:50:24;;;;;;;;;;;;;;;20.02;37.83;94229.47;5158791;27;1017;-56
2023/03/09 12:52:53;;;;;;;;;;;;;;;19.91;37.68;94231.16;5158615;27;1972;-56
2023/03/09 12:55:20;;;;;;;;;;;;;;;19.74;38.37;94219.44;5158766;27;1072;-56
2023/03/09 12:57:47;;;;;;;;;;;;;;;19.66;38.20;94215.19;5158803;27;1152;-56
2023/03/09 13:00:29;;;;;;;;;;;;;;;19.48;37.82;94225.13;5158437;27;1496;-55
2023/03/09 13:03:05;;;;;;;;;;;;;;;19.58;38.32;94212.84;5158804;27;1000;-56
2023/03/09 13:05:48;;;;;;;;;;;;;;;19.46;37.83;94216.44;5158573;27;1016;-56
2023/03/09 13:08:19;;;;;;;;;;;;;;;19.44;38.06;94209.56;5158756;27;1310;-56
2023/03/09 13:10:46;;;;;;;;;;;;;;;19.55;37.30;94211.44;5156735;27;1567;-56